createdAt,value
2023-03-06T00:00:17.632Z,3.73
2023-03-06T00:02:44.745Z,4.00
2023-03-06T00:05:12.392Z,4.10
2023-03-06T00:07:38.997Z,3.90
2023-03-06T00:10:05.965Z,4.05
2023-03-06T00:12:33.154Z,4.13
2023-03-06T00:14:59.708Z,4.13
2023-03-06T00:17:29.246Z,3.80
2023-03-06T00:19:55.995Z,4.93
2023-03-06T00:22:22.673Z,3.88
2023-03-06T00:24:49.275Z,3.63
2023-03-06T00:27:15.988Z,3.97
2023-03-06T00:29:42.553Z,3.75
2023-03-06T00:32:09.129Z,3.83
2023-03-06T00:34:35.726Z,3.78
2023-03-06T00:37:02.383Z,4.07
2023-03-06T00:39:28.930Z,4.05
2023-03-06T00:41:55.643Z,4.20
2023-03-06T00:44:22.344Z,3.90
2023-03-06T00:46:48.885Z,3.83
2023-03-06T00:49:23.099Z,4.23
2023-03-06T00:52:12.224Z,4.30
2023-03-06T00:54:36.872Z,4.72
2023-03-06T00:57:03.488Z,4.25
2023-03-06T00:59:29.990Z,4.53
2023-03-06T01:01:56.751Z,3.83
2023-03-06T01:04:23.422Z,4.43
2023-03-06T01:06:50.080Z,4.50
2023-03-06T01:09:16.920Z,4.25
2023-03-06T01:11:43.482Z,4.53
2023-03-06T01:14:10.236Z,4.10
2023-03-06T01:16:36.825Z,4.22
2023-03-06T01:19:06.118Z,4.15
2023-03-06T01:21:32.813Z,4.25
2023-03-06T01:23:59.351Z,4.35
2023-03-06T01:26:25.927Z,4.33
2023-03-06T01:28:52.451Z,4.25
2023-03-06T01:31:19.097Z,4.05
2023-03-06T01:33:45.837Z,4.28
2023-03-06T01:36:13.063Z,4.32
2023-03-06T01:38:39.813Z,4.73
2023-03-06T01:41:06.856Z,4.63
2023-03-06T01:43:39.301Z,3.70
2023-03-06T01:46:23.366Z,3.85
2023-03-06T01:48:54.717Z,5.10
2023-03-06T01:51:25.441Z,3.90
2023-03-06T01:53:53.327Z,4.43
2023-03-06T01:56:24.686Z,4.40
2023-03-06T01:58:51.940Z,3.92
2023-03-06T02:01:19.588Z,3.95
2023-03-06T02:03:52.507Z,4.03
2023-03-06T02:06:19.159Z,4.10
2023-03-06T02:08:51.378Z,4.32
2023-03-06T02:11:24.232Z,4.05
2023-03-06T02:13:53.563Z,3.90
2023-03-06T02:16:31.657Z,4.03
2023-03-06T02:19:00.685Z,3.83
2023-03-06T02:21:33.010Z,5.82
2023-03-06T02:24:17.263Z,4.63
2023-03-06T02:26:44.879Z,4.55
2023-03-06T02:29:11.754Z,4.67
2023-03-06T02:31:39.909Z,4.97
2023-03-06T02:34:29.132Z,4.20
2023-03-06T02:37:02.746Z,3.97
2023-03-06T02:39:34.306Z,4.82
2023-03-06T02:42:01.234Z,3.90
2023-03-06T02:44:29.172Z,4.40
2023-03-06T02:46:55.807Z,4.22
2023-03-06T02:49:22.907Z,4.05
2023-03-06T02:51:50.170Z,4.35
2023-03-06T02:54:16.740Z,4.23
2023-03-06T02:56:43.296Z,4.10
2023-03-06T02:59:09.833Z,4.10
2023-03-06T03:01:36.795Z,4.07
2023-03-06T03:04:03.652Z,4.60
2023-03-06T03:06:30.248Z,4.47
2023-03-06T03:08:58.753Z,4.45
2023-03-06T03:11:25.423Z,4.50
2023-03-06T03:13:51.979Z,4.55
2023-03-06T03:16:18.766Z,4.88
2023-03-06T03:18:45.375Z,4.07
2023-03-06T03:21:14.238Z,4.70
2023-03-06T03:23:41.423Z,4.13
2023-03-06T03:26:17.938Z,4.40
2023-03-06T03:28:45.019Z,4.28
2023-03-06T03:31:15.286Z,3.80
2023-03-06T03:33:41.954Z,3.88
2023-03-06T03:36:09.382Z,4.03
2023-03-06T03:38:37.111Z,3.72
2023-03-06T03:41:04.573Z,4.20
2023-03-06T03:43:31.587Z,4.40
2023-03-06T03:45:58.252Z,3.88
2023-03-06T03:48:24.817Z,4.30
2023-03-06T03:50:51.475Z,4.63
2023-03-06T03:53:18.133Z,4.35
2023-03-06T03:55:46.932Z,3.90
2023-03-06T03:58:13.870Z,4.18
2023-03-06T04:00:40.668Z,4.07
2023-03-06T04:03:07.174Z,4.10
2023-03-06T04:05:39.585Z,4.70
2023-03-06T04:08:09.304Z,4.43
2023-03-06T04:10:40.175Z,5.20
2023-03-06T04:13:09.831Z,5.15
2023-03-06T04:15:36.640Z,4.60
2023-03-06T04:18:03.333Z,5.15
2023-03-06T04:20:30.494Z,4.67
2023-03-06T04:22:57.185Z,3.85
2023-03-06T04:25:23.760Z,5.13
2023-03-06T04:27:50.321Z,3.90
2023-03-06T04:30:17.004Z,4.22
2023-03-06T04:32:43.584Z,4.67
2023-03-06T04:35:10.325Z,4.47
2023-03-06T04:37:37.013Z,4.18
2023-03-06T04:40:03.893Z,4.22
2023-03-06T04:42:33.375Z,4.13
2023-03-06T04:44:59.929Z,4.60
2023-03-06T04:47:26.498Z,4.07
2023-03-06T04:49:53.042Z,4.65
2023-03-06T04:52:19.655Z,4.25
2023-03-06T04:54:46.273Z,4.72
2023-03-06T04:57:12.930Z,4.97
2023-03-06T04:59:39.684Z,4.63
2023-03-06T05:02:06.257Z,5.28
2023-03-06T05:04:32.810Z,4.80
2023-03-06T05:06:59.509Z,4.63
2023-03-06T05:09:26.232Z,5.63
2023-03-06T05:11:52.767Z,5.50
2023-03-06T05:14:19.662Z,7.07
2023-03-06T05:16:46.189Z,5.70
2023-03-06T05:19:12.956Z,5.85
2023-03-06T05:21:39.525Z,5.43
2023-03-06T05:24:06.323Z,5.50
2023-03-06T05:26:32.883Z,6.05
2023-03-06T05:28:59.488Z,7.50
2023-03-06T05:31:26.042Z,5.63
2023-03-06T05:33:52.542Z,5.07
2023-03-06T05:36:19.250Z,5.13
2023-03-06T05:38:45.936Z,5.25
2023-03-06T05:41:14.024Z,5.28
2023-03-06T05:43:40.537Z,5.40
2023-03-06T05:46:07.446Z,5.70
2023-03-06T05:48:35.126Z,5.15
2023-03-06T05:51:03.422Z,5.22
2023-03-06T05:53:32.715Z,5.53
2023-03-06T05:56:04.894Z,5.18
2023-03-06T05:58:32.815Z,4.73
2023-03-06T06:01:00.381Z,5.22
2023-03-06T06:03:30.582Z,4.43
2023-03-06T06:06:04.633Z,4.75
2023-03-06T06:08:33.601Z,4.57
2023-03-06T06:11:00.120Z,4.40
2023-03-06T06:13:26.667Z,5.20
2023-03-06T06:15:53.443Z,5.18
2023-03-06T06:18:20.083Z,4.90
2023-03-06T06:20:46.988Z,5.40
2023-03-06T06:23:14.733Z,5.33
2023-03-06T06:25:41.376Z,5.30
2023-03-06T06:28:12.959Z,5.38
2023-03-06T06:30:48.939Z,4.85
2023-03-06T06:33:19.262Z,5.20
2023-03-06T06:35:45.931Z,4.90
2023-03-06T06:38:12.574Z,5.15
2023-03-06T06:40:39.725Z,6.13
2023-03-06T06:43:06.463Z,5.88
2023-03-06T06:45:33.625Z,6.72
2023-03-06T06:48:00.261Z,7.17
2023-03-06T06:50:29.935Z,6.50
2023-03-06T06:52:59.428Z,7.60
2023-03-06T06:55:31.202Z,6.53
2023-03-06T06:58:00.548Z,6.90
2023-03-06T07:00:27.589Z,6.73
2023-03-06T07:02:56.406Z,6.85
2023-03-06T07:05:23.211Z,6.55
2023-03-06T07:07:49.746Z,6.85
2023-03-06T07:10:16.545Z,6.43
2023-03-06T07:12:51.150Z,5.87
2023-03-06T07:15:18.342Z,6.03
2023-03-06T07:17:44.900Z,6.00
2023-03-06T07:20:14.645Z,5.60
2023-03-06T07:22:51.493Z,6.07
2023-03-06T07:25:21.841Z,6.30
2023-03-06T07:27:54.588Z,6.22
2023-03-06T07:30:25.206Z,6.32
2023-03-06T07:32:56.313Z,6.10
2023-03-06T07:35:23.509Z,6.45
2023-03-06T07:37:50.290Z,6.43
2023-03-06T07:40:17.393Z,6.00
2023-03-06T07:42:44.396Z,6.40
2023-03-06T07:45:11.547Z,5.85
2023-03-06T07:47:38.619Z,5.82
2023-03-06T07:50:06.077Z,4.43
2023-03-06T07:52:36.103Z,4.60
2023-03-06T07:55:11.120Z,5.30
2023-03-06T07:57:39.944Z,4.53
2023-03-06T08:00:15.886Z,4.10
2023-03-06T08:02:43.668Z,4.20
2023-03-06T08:05:17.855Z,4.82
2023-03-06T08:07:47.675Z,4.65
2023-03-06T08:10:23.311Z,4.13
2023-03-06T08:12:50.546Z,4.25
2023-03-06T08:15:17.144Z,4.87
2023-03-06T08:17:43.949Z,4.50
2023-03-06T08:20:11.759Z,5.10
2023-03-06T08:22:41.467Z,5.13
2023-03-06T08:25:11.400Z,4.72
2023-03-06T08:27:37.931Z,3.77
2023-03-06T08:30:05.815Z,4.05
2023-03-06T08:32:38.081Z,4.40
2023-03-06T08:38:06.335Z,4.57
2023-03-06T08:40:40.395Z,4.33
2023-03-06T08:43:12.381Z,4.32
2023-03-06T08:45:51.966Z,4.63
2023-03-06T08:48:23.551Z,4.55
2023-03-06T08:50:52.908Z,5.35
2023-03-06T08:53:19.625Z,5.70
2023-03-06T08:55:57.561Z,4.68
2023-03-06T08:58:25.876Z,3.95
2023-03-06T09:01:01.633Z,4.13
2023-03-06T09:03:29.427Z,3.90
2023-03-06T09:06:08.202Z,4.30
2023-03-06T09:08:34.758Z,4.50
2023-03-06T09:11:01.418Z,4.60
2023-03-06T09:13:28.058Z,3.85
2023-03-06T09:15:54.558Z,3.70
2023-03-06T09:18:21.227Z,4.13
2023-03-06T09:20:47.758Z,4.50
2023-03-06T09:23:14.324Z,4.28
2023-03-06T09:25:40.890Z,3.85
2023-03-06T09:28:11.887Z,3.65
2023-03-06T09:30:40.794Z,3.50
2023-03-06T09:33:12.580Z,3.28
2023-03-06T09:35:52.114Z,3.60
2023-03-06T09:38:25.058Z,3.28
2023-03-06T09:40:59.827Z,3.67
2023-03-06T09:43:33.062Z,3.47
2023-03-06T09:45:59.643Z,3.20
2023-03-06T09:48:39.903Z,3.20
2023-03-06T09:51:15.142Z,3.70
2023-03-06T09:53:55.466Z,4.03
2023-03-06T09:56:26.085Z,3.43
2023-03-06T09:58:59.464Z,3.80
2023-03-06T10:01:33.962Z,3.33
2023-03-06T10:04:28.699Z,3.25
2023-03-06T10:07:21.571Z,3.42
2023-03-06T10:09:56.965Z,3.00
2023-03-06T10:12:37.801Z,5.88
2023-03-06T10:15:16.215Z,3.30
2023-03-06T10:17:43.945Z,3.38
2023-03-06T10:20:18.881Z,3.15
2023-03-06T10:23:33.569Z,3.07
2023-03-06T10:26:01.530Z,3.42
2023-03-06T10:28:40.306Z,4.00
2023-03-06T10:31:24.133Z,3.20
2023-03-06T10:34:11.884Z,3.40
2023-03-06T10:36:38.695Z,3.80
2023-03-06T10:39:14.448Z,3.80
2023-03-06T10:41:41.503Z,6.45
2023-03-06T10:44:08.077Z,4.72
2023-03-06T10:46:37.314Z,5.35
2023-03-06T10:49:06.626Z,5.33
2023-03-06T10:51:33.556Z,4.70
2023-03-06T10:54:20.008Z,4.20
2023-03-06T10:56:47.705Z,3.97
2023-03-06T10:59:21.722Z,3.17
2023-03-06T11:02:25.229Z,3.13
2023-03-06T11:04:54.310Z,3.28
2023-03-06T11:07:23.950Z,3.22
2023-03-06T11:09:59.512Z,3.30
2023-03-06T11:12:30.085Z,3.22
2023-03-06T11:15:15.240Z,3.17
2023-03-06T11:17:52.312Z,3.13
2023-03-06T11:20:26.986Z,3.38
2023-03-06T11:23:02.669Z,3.75
2023-03-06T11:25:45.684Z,3.33
2023-03-06T11:28:23.535Z,3.67
2023-03-06T11:30:54.444Z,3.78
2023-03-06T11:33:42.757Z,3.05
2023-03-06T11:36:30.560Z,4.18
2023-03-06T11:38:57.204Z,3.53
2023-03-06T11:41:54.829Z,3.73
2023-03-06T11:44:27.382Z,3.60
2023-03-06T11:47:06.098Z,3.80
2023-03-06T11:49:39.650Z,3.38
2023-03-06T11:52:14.741Z,3.67
2023-03-06T11:54:41.456Z,3.60
2023-03-06T11:57:20.394Z,4.13
2023-03-06T11:59:55.667Z,3.50
2023-03-06T12:02:31.912Z,3.95
2023-03-06T12:05:01.433Z,4.00
2023-03-06T12:08:03.536Z,4.17
2023-03-06T12:10:45.229Z,3.63
2023-03-06T12:13:29.534Z,3.90
2023-03-06T12:16:04.943Z,3.78
2023-03-06T12:19:09.254Z,4.03
2023-03-06T12:21:50.333Z,3.90
2023-03-06T12:24:45.954Z,3.92
2023-03-06T12:27:17.261Z,3.97
2023-03-06T12:29:49.839Z,4.38
2023-03-06T12:32:22.235Z,4.70
2023-03-06T12:35:07.882Z,4.60
2023-03-06T12:38:03.482Z,4.80
2023-03-06T12:41:02.139Z,4.53
2023-03-06T12:43:48.677Z,4.60
2023-03-06T12:46:21.871Z,13.30
2023-03-06T12:49:03.256Z,4.77
2023-03-06T12:51:31.323Z,4.70
2023-03-06T12:54:00.387Z,4.95
2023-03-06T12:56:28.660Z,4.88
2023-03-06T12:58:57.056Z,4.15
2023-03-06T13:01:54.096Z,5.47
2023-03-06T13:04:35.426Z,4.82
2023-03-06T13:07:18.671Z,4.68
2023-03-06T13:10:10.888Z,5.20
2023-03-06T13:12:49.656Z,4.15
2023-03-06T13:15:37.563Z,5.37
2023-03-06T13:18:23.046Z,5.47
2023-03-06T13:20:50.764Z,4.70
2023-03-06T13:23:29.562Z,4.53
2023-03-06T13:26:25.246Z,4.40
2023-03-06T13:28:54.036Z,4.40
2023-03-06T13:31:34.170Z,4.28
2023-03-06T13:34:42.361Z,4.90
2023-03-06T13:37:18.172Z,4.72
2023-03-06T13:39:57.146Z,4.80
2023-03-06T13:42:27.826Z,4.20
2023-03-06T13:44:56.906Z,5.10
2023-03-06T13:47:45.056Z,5.40
2023-03-06T13:50:31.235Z,5.50
2023-03-06T13:53:00.790Z,5.15
2023-03-06T13:55:44.506Z,4.40
2023-03-06T13:58:25.666Z,5.65
2023-03-06T14:01:07.792Z,5.10
2023-03-06T14:03:52.734Z,5.05
2023-03-06T14:06:34.435Z,4.82
2023-03-06T14:09:03.829Z,4.87
2023-03-06T14:11:31.706Z,5.30
2023-03-06T14:13:59.409Z,6.15
2023-03-06T14:16:49.032Z,5.72
2023-03-06T14:19:20.662Z,5.97
2023-03-06T14:21:56.701Z,5.67
2023-03-06T14:24:37.501Z,6.35
2023-03-06T14:27:04.765Z,5.40
2023-03-06T14:29:33.220Z,5.20
2023-03-06T14:32:01.521Z,5.47
2023-03-06T14:34:30.555Z,5.47
2023-03-06T14:37:03.279Z,5.30
2023-03-06T14:39:43.969Z,6.18
2023-03-06T14:42:22.698Z,8.23
2023-03-06T14:45:00.510Z,5.68
2023-03-06T14:47:28.432Z,5.80
2023-03-06T14:50:19.713Z,6.10
2023-03-06T14:52:46.585Z,9.30
2023-03-06T14:55:22.162Z,9.13
2023-03-06T14:57:55.250Z,7.28
2023-03-06T15:00:24.684Z,9.73
2023-03-06T15:02:54.467Z,7.95
2023-03-06T15:05:29.832Z,8.43
2023-03-06T15:08:03.832Z,6.78
2023-03-06T15:10:33.399Z,6.80
2023-03-06T15:13:18.681Z,6.43
2023-03-06T15:16:05.529Z,6.90
2023-03-06T15:18:37.202Z,6.97
2023-03-06T15:21:20.941Z,7.20
2023-03-06T15:23:52.260Z,7.22
2023-03-06T15:26:32.004Z,7.13
2023-03-06T15:29:10.981Z,7.93
2023-03-06T15:31:39.759Z,6.53
2023-03-06T15:34:06.338Z,6.70
2023-03-06T15:36:43.841Z,7.07
2023-03-06T15:39:35.500Z,6.33
2023-03-06T15:42:22.518Z,7.47
2023-03-06T15:44:52.587Z,7.30
2023-03-06T15:47:20.031Z,7.30
2023-03-06T15:49:47.006Z,6.93
2023-03-06T15:52:13.768Z,6.50
2023-03-06T15:54:40.340Z,7.25
2023-03-06T15:57:14.087Z,7.80
2023-03-06T15:59:44.381Z,7.38
2023-03-06T16:02:20.495Z,6.35
2023-03-06T16:04:47.524Z,7.63
2023-03-06T16:07:14.691Z,7.22
2023-03-06T16:09:42.218Z,7.35
2023-03-06T16:12:16.362Z,7.18
2023-03-06T16:14:43.891Z,7.18
2023-03-06T16:17:14.297Z,6.77
2023-03-06T16:19:41.127Z,7.28
2023-03-06T16:22:07.798Z,7.05
2023-03-06T16:24:34.557Z,7.30
2023-03-06T16:27:02.778Z,7.25
2023-03-06T16:29:29.524Z,7.07
2023-03-06T16:31:57.890Z,7.75
2023-03-06T16:34:25.071Z,8.38
2023-03-06T16:36:51.655Z,7.50
2023-03-06T16:39:21.118Z,9.25
2023-03-06T16:41:47.930Z,9.63
2023-03-06T16:44:14.597Z,10.30
2023-03-06T16:46:46.694Z,12.35
2023-03-06T16:49:16.625Z,16.40
2023-03-06T16:51:43.342Z,21.20
2023-03-06T16:54:09.882Z,28.70
2023-03-06T16:56:36.511Z,21.23
2023-03-06T16:59:03.116Z,13.95
2023-03-06T17:01:29.683Z,10.65
2023-03-06T17:03:56.323Z,8.70
2023-03-06T17:06:23.154Z,8.50
2023-03-06T17:08:50.762Z,9.43
2023-03-06T17:11:17.959Z,9.23
2023-03-06T17:13:44.506Z,7.85
2023-03-06T17:16:15.497Z,7.35
2023-03-06T17:18:43.511Z,7.80
2023-03-06T17:21:10.853Z,9.00
2023-03-06T17:23:37.954Z,10.63
2023-03-06T17:26:09.925Z,10.27
2023-03-06T17:28:38.192Z,14.35
2023-03-06T17:31:18.908Z,12.47
2023-03-06T17:33:46.271Z,9.95
2023-03-06T17:36:13.772Z,10.43
2023-03-06T17:38:41.198Z,11.23
2023-03-06T17:41:09.811Z,11.15
2023-03-06T17:43:37.684Z,11.13
2023-03-06T17:46:06.800Z,12.57
2023-03-06T17:48:34.237Z,11.30
2023-03-06T17:51:00.850Z,11.73
2023-03-06T17:53:27.847Z,10.80
2023-03-06T17:55:55.260Z,9.63
2023-03-06T17:58:25.236Z,10.43
2023-03-06T18:00:51.811Z,11.50
2023-03-06T18:03:20.042Z,10.70
2023-03-06T18:05:46.584Z,11.40
2023-03-06T18:08:13.578Z,11.33
2023-03-06T18:10:43.390Z,10.32
2023-03-06T18:13:10.744Z,10.98
2023-03-06T18:15:41.304Z,10.05
2023-03-06T18:18:08.701Z,10.10
2023-03-06T18:20:40.890Z,8.13
2023-03-06T18:23:07.686Z,8.00
2023-03-06T18:25:34.630Z,8.95
2023-03-06T18:28:01.189Z,8.75
2023-03-06T18:30:27.950Z,9.00
2023-03-06T18:32:54.676Z,10.87
2023-03-06T18:35:21.627Z,9.43
2023-03-06T18:37:48.203Z,8.18
2023-03-06T18:40:15.138Z,9.32
2023-03-06T18:42:41.741Z,7.93
2023-03-06T18:45:08.936Z,7.73
2023-03-06T18:47:35.440Z,7.68
2023-03-06T18:50:02.015Z,8.55
2023-03-06T18:52:28.609Z,8.38
2023-03-06T18:54:55.186Z,8.88
2023-03-06T18:57:21.755Z,8.73
2023-03-06T18:59:48.343Z,8.73
2023-03-06T19:02:15.114Z,8.55
2023-03-06T19:04:41.775Z,8.65
2023-03-06T19:07:08.435Z,9.18
2023-03-06T19:09:35.078Z,8.67
2023-03-06T19:12:01.646Z,9.10
2023-03-06T19:14:28.355Z,8.45
2023-03-06T19:16:55.302Z,9.93
2023-03-06T19:19:22.104Z,7.85
2023-03-06T19:21:48.611Z,9.27
2023-03-06T19:24:15.244Z,8.75
2023-03-06T19:26:41.981Z,9.23
2023-03-06T19:29:08.641Z,10.15
2023-03-06T19:31:35.267Z,10.65
2023-03-06T19:34:01.870Z,10.50
2023-03-06T19:36:30.772Z,9.63
2023-03-06T19:39:01.142Z,10.13
2023-03-06T19:41:28.601Z,8.75
2023-03-06T19:43:57.649Z,8.77
2023-03-06T19:46:25.507Z,8.13
2023-03-06T19:49:01.336Z,9.27
2023-03-06T19:51:28.663Z,9.35
2023-03-06T19:53:56.854Z,9.38
2023-03-06T19:56:26.186Z,9.32
2023-03-06T19:58:53.612Z,9.17
2023-03-06T20:01:22.747Z,9.75
2023-03-06T20:03:49.520Z,9.40
2023-03-06T20:06:18.188Z,9.48
2023-03-06T20:08:45.764Z,10.07
2023-03-06T20:11:20.348Z,9.30
2023-03-06T20:13:47.809Z,9.70
2023-03-06T20:16:15.622Z,8.98
2023-03-06T20:18:42.718Z,9.07
2023-03-06T20:21:09.464Z,10.18
2023-03-06T20:23:35.987Z,10.27
2023-03-06T20:26:08.440Z,8.98
2023-03-06T20:28:36.243Z,10.23
2023-03-06T20:31:10.119Z,9.25
2023-03-06T20:33:37.063Z,9.88
2023-03-06T20:36:04.022Z,9.23
2023-03-06T20:38:30.613Z,9.52
2023-03-06T20:40:57.328Z,10.23
2023-03-06T20:43:23.940Z,10.27
2023-03-06T20:46:01.560Z,10.80
2023-03-06T20:48:34.464Z,9.73
2023-03-06T20:51:11.909Z,11.30
2023-03-06T20:53:39.452Z,10.70
2023-03-06T20:56:06.560Z,11.43
2023-03-06T20:58:33.242Z,11.27
2023-03-06T21:01:02.247Z,10.33
2023-03-06T21:03:31.836Z,9.93
2023-03-06T21:06:02.859Z,10.90
2023-03-06T21:08:32.258Z,10.02
2023-03-06T21:10:58.826Z,10.15
2023-03-06T21:13:25.606Z,10.67
2023-03-06T21:15:52.175Z,10.15
2023-03-06T21:18:18.733Z,9.52
2023-03-06T21:20:45.287Z,9.52
2023-03-06T21:23:12.092Z,9.65
2023-03-06T21:25:47.518Z,10.07
2023-03-06T21:28:14.465Z,9.60
2023-03-06T21:30:41.287Z,9.90
2023-03-06T21:33:08.054Z,10.82
2023-03-06T21:35:38.038Z,9.93
2023-03-06T21:38:04.680Z,10.83
2023-03-06T21:40:31.550Z,10.95
2023-03-06T21:42:58.266Z,10.23
2023-03-06T21:45:28.075Z,10.27
2023-03-06T21:47:56.094Z,10.20
2023-03-06T21:50:23.325Z,9.20
2023-03-06T21:52:50.573Z,9.57
2023-03-06T21:55:17.892Z,9.80
2023-03-06T21:57:49.089Z,9.65
2023-03-06T22:00:15.954Z,9.18
2023-03-06T22:02:42.611Z,9.60
2023-03-06T22:05:09.407Z,10.57
2023-03-06T22:07:39.781Z,10.35
2023-03-06T22:10:08.102Z,10.00
2023-03-06T22:12:35.298Z,9.57
2023-03-06T22:15:02.133Z,9.97
2023-03-06T22:17:30.337Z,10.30
2023-03-06T22:19:57.034Z,10.40
2023-03-06T22:22:24.252Z,9.43
2023-03-06T22:24:50.754Z,9.65
2023-03-06T22:27:17.315Z,9.73
2023-03-06T22:29:45.427Z,10.38
2023-03-06T22:32:12.141Z,9.60
2023-03-06T22:34:38.833Z,9.95
2023-03-06T22:37:08.381Z,9.70
2023-03-06T22:39:34.976Z,10.03
2023-03-06T22:42:01.498Z,10.88
2023-03-06T22:44:28.051Z,9.75
2023-03-06T22:46:54.717Z,9.93
2023-03-06T22:49:21.329Z,10.25
2023-03-06T22:51:47.828Z,10.07
2023-03-06T22:54:14.473Z,10.40
2023-03-06T22:56:43.962Z,11.40
2023-03-06T22:59:10.628Z,11.07
2023-03-06T23:01:38.510Z,10.15
2023-03-06T23:04:09.665Z,11.03
2023-03-06T23:06:44.729Z,10.15
2023-03-06T23:09:21.345Z,10.82
2023-03-06T23:11:53.868Z,9.40
2023-03-06T23:14:20.661Z,9.30
2023-03-06T23:16:47.428Z,9.60
2023-03-06T23:19:21.160Z,9.55
2023-03-06T23:21:47.653Z,9.70
2023-03-06T23:24:14.283Z,9.68
2023-03-06T23:26:41.930Z,9.88
2023-03-06T23:29:09.055Z,9.97
2023-03-06T23:31:38.672Z,9.60
2023-03-06T23:34:05.257Z,8.77
2023-03-06T23:36:32.283Z,9.25
2023-03-06T23:39:04.577Z,9.15
2023-03-06T23:41:32.988Z,9.30
2023-03-06T23:43:59.645Z,9.32
2023-03-06T23:46:26.232Z,9.43
2023-03-06T23:48:52.945Z,8.55
2023-03-06T23:51:21.715Z,8.52
2023-03-06T23:54:00.176Z,8.70
2023-03-06T23:56:30.909Z,9.10
2023-03-06T23:58:57.411Z,9.27
